Main page
METAR-TAF:

METAR-TAF

Airports :

Valladolid Airport

Valladolid, Spain

latitude: 41-43N, longitude: 004-51W, elevation: 849 m

Current weather observation

The report was made 18 minutes ago, at 18:00 UTC
Wind 11 kt from the East, varying between East/Northeast and East/Southeast
Temperature 17°C
Humidity 59%
Pressure 1022 hPa
Visibility 10 km or more
Few clouds at a height of 4100 ft

METAR: LEVD 201800Z 09011KT 060V120 9999 FEW041 17/09 Q1022

Time: 20:18 (18:18 UTC)

Forecast

The report was made 1 hour and 18 minutes ago, at 17:00 UTC
Forecast valid from 20 at 18 UTC to 21 at 18 UTC
Wind 13 kt from the East/Northeast
Visibility 10 km or more
Broken clouds at a height of 2000 ft
Becoming
from 21 at 14 UTC to 21 at 16 UTC
Wind 4 kt from variable directions

TAF: LEVD 201700Z 2018/2118 06013KT 9999 BKN020 TX24/2115Z TN12/2106Z BECMG 2114/2116 VRB04KT

Weather observations and forecasts of more than 4000 airports (METAR and TAF reports).

The available stations are represented by yellow and red dots on the map.

Hover mouse over dot to see the name of the station.

Then click to see weather observations and forecasts.

To change the map : click on the green buttons with a black cross to zoom in, on the green button with a dash to zoom out, or on the green arrows for adjacent maps.


METAR-TAF: